sensor_id;sensor_type;location;lat;lon;timestamp;P1;durP1;ratioP1;P2;durP2;ratioP2
40729;SDS011;26418;50.070;8.436;2022-10-16T00:01:36;1.88;;;0.90;;
40729;SDS011;26418;50.070;8.436;2022-10-16T00:04:02;4.38;;;1.80;;
40729;SDS011;26418;50.070;8.436;2022-10-16T00:06:28;2.53;;;1.52;;
40729;SDS011;26418;50.070;8.436;2022-10-16T00:08:54;2.30;;;1.98;;
40729;SDS011;26418;50.070;8.436;2022-10-16T00:11:22;2.30;;;1.70;;
40729;SDS011;26418;50.070;8.436;2022-10-16T00:13:54;3.28;;;2.10;;
40729;SDS011;26418;50.070;8.436;2022-10-16T00:16:21;2.58;;;1.55;;
40729;SDS011;26418;50.070;8.436;2022-10-16T00:18:46;5.40;;;2.58;;
40729;SDS011;26418;50.070;8.436;2022-10-16T00:21:13;4.03;;;3.17;;
40729;SDS011;26418;50.070;8.436;2022-10-16T00:23:41;3.58;;;2.75;;
40729;SDS011;26418;50.070;8.436;2022-10-16T00:26:08;4.30;;;2.45;;
40729;SDS011;26418;50.070;8.436;2022-10-16T00:28:35;2.95;;;2.53;;
40729;SDS011;26418;50.070;8.436;2022-10-16T00:31:08;6.72;;;4.43;;
40729;SDS011;26418;50.070;8.436;2022-10-16T00:33:36;7.85;;;5.97;;
40729;SDS011;26418;50.070;8.436;2022-10-16T00:36:03;4.88;;;4.38;;
40729;SDS011;26418;50.070;8.436;2022-10-16T00:38:30;12.65;;;6.65;;
40729;SDS011;26418;50.070;8.436;2022-10-16T00:40:56;9.43;;;6.80;;
40729;SDS011;26418;50.070;8.436;2022-10-16T00:46:28;9.48;;;7.30;;
40729;SDS011;26418;50.070;8.436;2022-10-16T00:49:01;9.23;;;6.80;;
40729;SDS011;26418;50.070;8.436;2022-10-16T00:51:30;6.10;;;5.43;;
40729;SDS011;26418;50.070;8.436;2022-10-16T00:54:00;17.02;;;10.23;;
40729;SDS011;26418;50.070;8.436;2022-10-16T00:56:28;10.82;;;7.07;;
40729;SDS011;26418;50.070;8.436;2022-10-16T00:58:53;11.48;;;9.85;;
40729;SDS011;26418;50.070;8.436;2022-10-16T01:01:19;12.60;;;9.68;;
40729;SDS011;26418;50.070;8.436;2022-10-16T01:03:44;12.65;;;9.73;;
40729;SDS011;26418;50.070;8.436;2022-10-16T01:08:53;15.73;;;10.77;;
40729;SDS011;26418;50.070;8.436;2022-10-16T01:11:39;11.75;;;9.65;;
40729;SDS011;26418;50.070;8.436;2022-10-16T01:14:26;13.07;;;8.65;;
40729;SDS011;26418;50.070;8.436;2022-10-16T01:17:49;12.57;;;8.43;;
40729;SDS011;26418;50.070;8.436;2022-10-16T01:20:30;12.15;;;8.13;;
40729;SDS011;26418;50.070;8.436;2022-10-16T01:28:39;9.07;;;6.13;;
40729;SDS011;26418;50.070;8.436;2022-10-16T01:31:11;7.57;;;6.40;;
40729;SDS011;26418;50.070;8.436;2022-10-16T01:33:41;7.47;;;5.45;;
40729;SDS011;26418;50.070;8.436;2022-10-16T01:36:11;7.97;;;6.53;;
40729;SDS011;26418;50.070;8.436;2022-10-16T01:38:39;7.25;;;6.30;;
40729;SDS011;26418;50.070;8.436;2022-10-16T01:41:10;6.53;;;5.50;;
40729;SDS011;26418;50.070;8.436;2022-10-16T01:43:41;7.57;;;5.60;;
40729;SDS011;26418;50.070;8.436;2022-10-16T01:46:11;8.68;;;6.72;;
40729;SDS011;26418;50.070;8.436;2022-10-16T01:48:40;11.95;;;6.80;;
40729;SDS011;26418;50.070;8.436;2022-10-16T01:51:07;7.88;;;6.78;;
40729;SDS011;26418;50.070;8.436;2022-10-16T01:53:37;7.50;;;5.68;;
40729;SDS011;26418;50.070;8.436;2022-10-16T01:56:04;7.55;;;5.93;;
40729;SDS011;26418;50.070;8.436;2022-10-16T01:58:35;8.20;;;5.40;;
40729;SDS011;26418;50.070;8.436;2022-10-16T02:01:04;8.40;;;5.20;;
40729;SDS011;26418;50.070;8.436;2022-10-16T02:03:34;8.23;;;4.28;;
40729;SDS011;26418;50.070;8.436;2022-10-16T02:06:02;6.25;;;4.40;;
40729;SDS011;26418;50.070;8.436;2022-10-16T02:08:28;7.55;;;5.88;;
40729;SDS011;26418;50.070;8.436;2022-10-16T02:10:56;5.28;;;3.97;;
40729;SDS011;26418;50.070;8.436;2022-10-16T02:13:23;6.95;;;3.83;;
40729;SDS011;26418;50.070;8.436;2022-10-16T02:15:54;7.93;;;4.32;;
40729;SDS011;26418;50.070;8.436;2022-10-16T02:18:20;3.67;;;3.25;;
40729;SDS011;26418;50.070;8.436;2022-10-16T02:20:50;5.95;;;4.07;;
40729;SDS011;26418;50.070;8.436;2022-10-16T02:23:23;6.82;;;4.88;;
40729;SDS011;26418;50.070;8.436;2022-10-16T02:25:56;7.95;;;5.05;;
40729;SDS011;26418;50.070;8.436;2022-10-16T02:28:24;9.18;;;5.75;;
40729;SDS011;26418;50.070;8.436;2022-10-16T02:31:00;7.72;;;4.35;;
40729;SDS011;26418;50.070;8.436;2022-10-16T02:33:28;4.30;;;3.50;;
40729;SDS011;26418;50.070;8.436;2022-10-16T02:35:55;3.58;;;2.70;;
40729;SDS011;26418;50.070;8.436;2022-10-16T02:38:22;4.35;;;3.47;;
40729;SDS011;26418;50.070;8.436;2022-10-16T02:40:49;4.82;;;3.22;;
40729;SDS011;26418;50.070;8.436;2022-10-16T02:43:15;4.50;;;2.83;;
40729;SDS011;26418;50.070;8.436;2022-10-16T02:45:40;3.20;;;2.90;;
40729;SDS011;26418;50.070;8.436;2022-10-16T02:48:06;4.03;;;2.95;;
40729;SDS011;26418;50.070;8.436;2022-10-16T02:50:31;5.38;;;4.63;;
40729;SDS011;26418;50.070;8.436;2022-10-16T02:52:57;5.70;;;4.55;;
40729;SDS011;26418;50.070;8.436;2022-10-16T02:55:22;4.43;;;3.35;;
40729;SDS011;26418;50.070;8.436;2022-10-16T02:57:47;4.32;;;3.83;;
40729;SDS011;26418;50.070;8.436;2022-10-16T03:00:14;6.60;;;4.72;;
40729;SDS011;26418;50.070;8.436;2022-10-16T03:02:40;6.22;;;4.60;;
40729;SDS011;26418;50.070;8.436;2022-10-16T03:05:06;6.47;;;3.88;;
40729;SDS011;26418;50.070;8.436;2022-10-16T03:07:32;3.75;;;3.30;;
40729;SDS011;26418;50.070;8.436;2022-10-16T03:09:57;3.05;;;2.70;;
40729;SDS011;26418;50.070;8.436;2022-10-16T03:12:25;3.08;;;2.50;;
40729;SDS011;26418;50.070;8.436;2022-10-16T03:14:51;2.75;;;2.45;;
40729;SDS011;26418;50.070;8.436;2022-10-16T03:17:16;3.10;;;2.72;;
40729;SDS011;26418;50.070;8.436;2022-10-16T03:19:42;4.93;;;2.80;;
40729;SDS011;26418;50.070;8.436;2022-10-16T03:22:07;7.70;;;4.00;;
40729;SDS011;26418;50.070;8.436;2022-10-16T03:24:33;6.88;;;4.40;;
40729;SDS011;26418;50.070;8.436;2022-10-16T03:26:58;8.40;;;4.93;;
40729;SDS011;26418;50.070;8.436;2022-10-16T03:29:24;5.32;;;3.83;;
40729;SDS011;26418;50.070;8.436;2022-10-16T03:31:50;8.13;;;3.92;;
40729;SDS011;26418;50.070;8.436;2022-10-16T03:34:16;9.15;;;4.63;;
40729;SDS011;26418;50.070;8.436;2022-10-16T03:36:41;5.05;;;3.50;;
40729;SDS011;26418;50.070;8.436;2022-10-16T03:39:06;3.85;;;3.05;;
40729;SDS011;26418;50.070;8.436;2022-10-16T03:41:32;2.78;;;2.33;;
40729;SDS011;26418;50.070;8.436;2022-10-16T03:43:57;6.22;;;2.45;;
40729;SDS011;26418;50.070;8.436;2022-10-16T03:46:22;2.92;;;2.00;;
40729;SDS011;26418;50.070;8.436;2022-10-16T03:48:48;2.25;;;1.75;;
40729;SDS011;26418;50.070;8.436;2022-10-16T03:51:13;2.97;;;1.77;;
40729;SDS011;26418;50.070;8.436;2022-10-16T03:53:38;2.17;;;1.95;;
40729;SDS011;26418;50.070;8.436;2022-10-16T03:56:04;3.05;;;2.28;;
40729;SDS011;26418;50.070;8.436;2022-10-16T03:58:29;3.50;;;2.20;;
40729;SDS011;26418;50.070;8.436;2022-10-16T04:00:54;3.63;;;2.22;;
40729;SDS011;26418;50.070;8.436;2022-10-16T04:03:20;2.42;;;2.03;;
40729;SDS011;26418;50.070;8.436;2022-10-16T04:05:46;2.00;;;1.77;;
40729;SDS011;26418;50.070;8.436;2022-10-16T04:08:11;2.13;;;1.85;;
40729;SDS011;26418;50.070;8.436;2022-10-16T04:10:37;2.40;;;1.92;;
40729;SDS011;26418;50.070;8.436;2022-10-16T04:13:02;1.80;;;1.65;;
40729;SDS011;26418;50.070;8.436;2022-10-16T04:15:27;1.70;;;1.50;;
40729;SDS011;26418;50.070;8.436;2022-10-16T04:17:53;2.75;;;2.53;;
40729;SDS011;26418;50.070;8.436;2022-10-16T04:20:18;6.45;;;2.85;;
40729;SDS011;26418;50.070;8.436;2022-10-16T04:22:44;3.38;;;2.45;;
40729;SDS011;26418;50.070;8.436;2022-10-16T04:25:09;5.05;;;2.33;;
40729;SDS011;26418;50.070;8.436;2022-10-16T04:27:36;4.05;;;3.20;;
40729;SDS011;26418;50.070;8.436;2022-10-16T04:30:02;5.43;;;3.75;;
40729;SDS011;26418;50.070;8.436;2022-10-16T04:32:27;3.33;;;2.88;;
40729;SDS011;26418;50.070;8.436;2022-10-16T04:34:53;3.05;;;2.75;;
40729;SDS011;26418;50.070;8.436;2022-10-16T04:37:18;5.38;;;3.22;;
40729;SDS011;26418;50.070;8.436;2022-10-16T04:39:47;3.25;;;2.63;;
40729;SDS011;26418;50.070;8.436;2022-10-16T04:42:13;2.17;;;1.92;;
40729;SDS011;26418;50.070;8.436;2022-10-16T04:44:38;2.08;;;1.88;;
40729;SDS011;26418;50.070;8.436;2022-10-16T04:47:03;2.50;;;1.90;;
40729;SDS011;26418;50.070;8.436;2022-10-16T04:49:29;2.15;;;1.83;;
40729;SDS011;26418;50.070;8.436;2022-10-16T04:51:55;5.63;;;3.28;;
40729;SDS011;26418;50.070;8.436;2022-10-16T04:54:20;5.57;;;3.85;;
40729;SDS011;26418;50.070;8.436;2022-10-16T04:56:45;6.60;;;4.05;;
40729;SDS011;26418;50.070;8.436;2022-10-16T04:59:15;5.80;;;3.70;;
40729;SDS011;26418;50.070;8.436;2022-10-16T05:01:41;5.57;;;3.70;;
40729;SDS011;26418;50.070;8.436;2022-10-16T05:04:07;4.53;;;4.05;;
40729;SDS011;26418;50.070;8.436;2022-10-16T05:06:32;6.03;;;4.07;;
40729;SDS011;26418;50.070;8.436;2022-10-16T05:08:58;6.03;;;4.18;;
40729;SDS011;26418;50.070;8.436;2022-10-16T05:11:23;6.85;;;4.60;;
40729;SDS011;26418;50.070;8.436;2022-10-16T05:13:48;5.30;;;3.95;;
40729;SDS011;26418;50.070;8.436;2022-10-16T05:16:14;3.95;;;3.58;;
40729;SDS011;26418;50.070;8.436;2022-10-16T05:18:39;4.93;;;2.83;;
40729;SDS011;26418;50.070;8.436;2022-10-16T05:21:04;2.33;;;2.00;;
40729;SDS011;26418;50.070;8.436;2022-10-16T05:23:30;4.43;;;3.80;;
40729;SDS011;26418;50.070;8.436;2022-10-16T05:25:56;3.30;;;3.00;;
40729;SDS011;26418;50.070;8.436;2022-10-16T05:28:24;3.25;;;2.50;;
40729;SDS011;26418;50.070;8.436;2022-10-16T05:30:53;5.78;;;3.13;;
40729;SDS011;26418;50.070;8.436;2022-10-16T05:33:22;6.93;;;3.75;;
40729;SDS011;26418;50.070;8.436;2022-10-16T05:35:50;3.83;;;3.42;;
40729;SDS011;26418;50.070;8.436;2022-10-16T05:38:16;6.28;;;4.15;;
40729;SDS011;26418;50.070;8.436;2022-10-16T05:40:42;4.97;;;4.20;;
40729;SDS011;26418;50.070;8.436;2022-10-16T05:43:08;5.70;;;3.72;;
40729;SDS011;26418;50.070;8.436;2022-10-16T05:45:34;4.93;;;3.50;;
40729;SDS011;26418;50.070;8.436;2022-10-16T05:47:59;7.03;;;3.60;;
40729;SDS011;26418;50.070;8.436;2022-10-16T05:50:25;4.80;;;3.83;;
40729;SDS011;26418;50.070;8.436;2022-10-16T05:52:51;4.30;;;3.08;;
40729;SDS011;26418;50.070;8.436;2022-10-16T05:55:16;3.67;;;2.92;;
40729;SDS011;26418;50.070;8.436;2022-10-16T05:57:42;3.95;;;2.63;;
40729;SDS011;26418;50.070;8.436;2022-10-16T06:00:08;3.90;;;2.40;;
40729;SDS011;26418;50.070;8.436;2022-10-16T06:02:34;2.40;;;2.00;;
40729;SDS011;26418;50.070;8.436;2022-10-16T06:04:59;2.55;;;1.80;;
40729;SDS011;26418;50.070;8.436;2022-10-16T06:07:24;2.60;;;1.75;;
40729;SDS011;26418;50.070;8.436;2022-10-16T06:09:50;2.15;;;1.75;;
40729;SDS011;26418;50.070;8.436;2022-10-16T06:12:17;2.25;;;1.60;;
40729;SDS011;26418;50.070;8.436;2022-10-16T06:14:42;4.38;;;1.73;;
40729;SDS011;26418;50.070;8.436;2022-10-16T06:17:08;2.50;;;1.60;;
40729;SDS011;26418;50.070;8.436;2022-10-16T06:19:33;3.92;;;1.58;;
40729;SDS011;26418;50.070;8.436;2022-10-16T06:21:58;1.38;;;1.20;;
40729;SDS011;26418;50.070;8.436;2022-10-16T06:24:24;2.47;;;1.30;;
40729;SDS011;26418;50.070;8.436;2022-10-16T06:26:50;2.45;;;1.45;;
40729;SDS011;26418;50.070;8.436;2022-10-16T06:29:15;3.22;;;1.30;;
40729;SDS011;26418;50.070;8.436;2022-10-16T06:31:40;2.70;;;1.92;;
40729;SDS011;26418;50.070;8.436;2022-10-16T06:34:06;2.80;;;1.95;;
40729;SDS011;26418;50.070;8.436;2022-10-16T06:36:35;4.38;;;2.85;;
40729;SDS011;26418;50.070;8.436;2022-10-16T06:39:01;8.55;;;4.63;;
40729;SDS011;26418;50.070;8.436;2022-10-16T06:41:26;6.28;;;4.03;;
40729;SDS011;26418;50.070;8.436;2022-10-16T06:43:51;6.45;;;4.30;;
40729;SDS011;26418;50.070;8.436;2022-10-16T06:46:18;6.20;;;4.25;;
40729;SDS011;26418;50.070;8.436;2022-10-16T06:48:45;4.90;;;3.75;;
40729;SDS011;26418;50.070;8.436;2022-10-16T06:51:15;5.13;;;3.20;;
40729;SDS011;26418;50.070;8.436;2022-10-16T06:53:49;8.88;;;3.15;;
40729;SDS011;26418;50.070;8.436;2022-10-16T06:56:19;7.70;;;3.07;;
40729;SDS011;26418;50.070;8.436;2022-10-16T06:58:46;4.20;;;2.67;;
40729;SDS011;26418;50.070;8.436;2022-10-16T07:01:13;8.77;;;2.85;;
40729;SDS011;26418;50.070;8.436;2022-10-16T07:03:40;3.85;;;2.13;;
40729;SDS011;26418;50.070;8.436;2022-10-16T07:06:07;10.07;;;2.35;;
40729;SDS011;26418;50.070;8.436;2022-10-16T07:08:34;4.18;;;2.08;;
40729;SDS011;26418;50.070;8.436;2022-10-16T07:11:01;6.75;;;1.88;;
40729;SDS011;26418;50.070;8.436;2022-10-16T07:13:28;4.95;;;1.35;;
40729;SDS011;26418;50.070;8.436;2022-10-16T07:15:54;2.03;;;1.38;;
40729;SDS011;26418;50.070;8.436;2022-10-16T07:18:19;4.50;;;1.30;;
40729;SDS011;26418;50.070;8.436;2022-10-16T07:20:44;3.08;;;1.35;;
40729;SDS011;26418;50.070;8.436;2022-10-16T07:23:10;1.83;;;1.15;;
40729;SDS011;26418;50.070;8.436;2022-10-16T07:25:35;3.15;;;1.52;;
40729;SDS011;26418;50.070;8.436;2022-10-16T07:28:00;2.25;;;1.20;;
40729;SDS011;26418;50.070;8.436;2022-10-16T07:30:26;1.50;;;1.10;;
40729;SDS011;26418;50.070;8.436;2022-10-16T07:32:51;3.90;;;1.25;;
40729;SDS011;26418;50.070;8.436;2022-10-16T07:35:16;4.60;;;1.20;;
40729;SDS011;26418;50.070;8.436;2022-10-16T07:37:45;1.80;;;1.38;;
40729;SDS011;26418;50.070;8.436;2022-10-16T07:40:11;2.75;;;1.20;;
40729;SDS011;26418;50.070;8.436;2022-10-16T07:42:36;5.22;;;1.90;;
40729;SDS011;26418;50.070;8.436;2022-10-16T07:45:02;3.95;;;2.10;;
40729;SDS011;26418;50.070;8.436;2022-10-16T07:47:27;2.78;;;1.38;;
40729;SDS011;26418;50.070;8.436;2022-10-16T07:49:52;6.13;;;2.10;;
40729;SDS011;26418;50.070;8.436;2022-10-16T07:52:18;7.07;;;2.35;;
40729;SDS011;26418;50.070;8.436;2022-10-16T07:54:43;2.65;;;2.10;;
40729;SDS011;26418;50.070;8.436;2022-10-16T07:57:09;3.95;;;1.88;;
40729;SDS011;26418;50.070;8.436;2022-10-16T07:59:34;2.47;;;1.98;;
40729;SDS011;26418;50.070;8.436;2022-10-16T08:01:59;10.70;;;2.33;;
40729;SDS011;26418;50.070;8.436;2022-10-16T08:04:24;2.17;;;1.52;;
40729;SDS011;26418;50.070;8.436;2022-10-16T08:06:50;3.50;;;2.08;;
40729;SDS011;26418;50.070;8.436;2022-10-16T08:09:15;3.10;;;2.13;;
40729;SDS011;26418;50.070;8.436;2022-10-16T08:11:40;4.65;;;1.98;;
40729;SDS011;26418;50.070;8.436;2022-10-16T08:14:06;5.20;;;2.00;;
40729;SDS011;26418;50.070;8.436;2022-10-16T08:16:31;2.88;;;2.17;;
40729;SDS011;26418;50.070;8.436;2022-10-16T08:18:57;4.45;;;2.50;;
40729;SDS011;26418;50.070;8.436;2022-10-16T08:21:22;5.05;;;1.70;;
40729;SDS011;26418;50.070;8.436;2022-10-16T08:23:48;2.42;;;1.80;;
40729;SDS011;26418;50.070;8.436;2022-10-16T08:26:14;2.25;;;1.85;;
40729;SDS011;26418;50.070;8.436;2022-10-16T08:28:40;5.00;;;1.90;;
40729;SDS011;26418;50.070;8.436;2022-10-16T08:31:06;3.58;;;2.53;;
40729;SDS011;26418;50.070;8.436;2022-10-16T08:33:36;3.60;;;2.20;;
40729;SDS011;26418;50.070;8.436;2022-10-16T08:36:02;2.63;;;2.28;;
40729;SDS011;26418;50.070;8.436;2022-10-16T08:38:29;8.50;;;2.53;;
40729;SDS011;26418;50.070;8.436;2022-10-16T08:44:22;2.90;;;1.77;;
40729;SDS011;26418;50.070;8.436;2022-10-16T08:49:32;5.95;;;1.83;;
40729;SDS011;26418;50.070;8.436;2022-10-16T08:51:58;3.08;;;1.35;;
40729;SDS011;26418;50.070;8.436;2022-10-16T08:54:29;2.25;;;1.27;;
40729;SDS011;26418;50.070;8.436;2022-10-16T08:57:11;2.20;;;1.95;;
40729;SDS011;26418;50.070;8.436;2022-10-16T08:59:40;2.65;;;1.80;;
40729;SDS011;26418;50.070;8.436;2022-10-16T09:02:18;2.70;;;2.15;;
40729;SDS011;26418;50.070;8.436;2022-10-16T09:13:03;2.03;;;1.83;;
40729;SDS011;26418;50.070;8.436;2022-10-16T09:15:36;4.13;;;1.90;;
40729;SDS011;26418;50.070;8.436;2022-10-16T09:18:29;5.65;;;1.38;;
40729;SDS011;26418;50.070;8.436;2022-10-16T09:21:10;2.10;;;1.10;;
40729;SDS011;26418;50.070;8.436;2022-10-16T09:23:37;2.10;;;1.30;;
40729;SDS011;26418;50.070;8.436;2022-10-16T09:26:03;2.72;;;1.30;;
40729;SDS011;26418;50.070;8.436;2022-10-16T09:28:34;3.08;;;1.38;;
40729;SDS011;26418;50.070;8.436;2022-10-16T09:30:59;6.20;;;2.05;;
40729;SDS011;26418;50.070;8.436;2022-10-16T09:33:25;5.22;;;2.10;;
40729;SDS011;26418;50.070;8.436;2022-10-16T09:35:56;4.05;;;1.85;;
40729;SDS011;26418;50.070;8.436;2022-10-16T09:38:28;6.55;;;2.20;;
40729;SDS011;26418;50.070;8.436;2022-10-16T09:40:55;5.55;;;1.77;;
40729;SDS011;26418;50.070;8.436;2022-10-16T09:43:27;6.07;;;2.42;;
40729;SDS011;26418;50.070;8.436;2022-10-16T09:46:01;2.90;;;1.88;;
40729;SDS011;26418;50.070;8.436;2022-10-16T09:48:39;4.82;;;2.72;;
40729;SDS011;26418;50.070;8.436;2022-10-16T09:51:17;3.95;;;2.50;;
40729;SDS011;26418;50.070;8.436;2022-10-16T09:53:58;16.02;;;3.22;;
40729;SDS011;26418;50.070;8.436;2022-10-16T09:56:30;4.22;;;2.67;;
40729;SDS011;26418;50.070;8.436;2022-10-16T09:59:13;3.90;;;1.95;;
40729;SDS011;26418;50.070;8.436;2022-10-16T10:01:40;4.88;;;2.45;;
40729;SDS011;26418;50.070;8.436;2022-10-16T10:04:07;5.00;;;2.30;;
40729;SDS011;26418;50.070;8.436;2022-10-16T10:06:34;12.93;;;7.20;;
40729;SDS011;26418;50.070;8.436;2022-10-16T10:09:06;8.73;;;5.03;;
40729;SDS011;26418;50.070;8.436;2022-10-16T10:16:45;10.27;;;5.28;;
40729;SDS011;26418;50.070;8.436;2022-10-16T10:19:18;11.05;;;6.30;;
40729;SDS011;26418;50.070;8.436;2022-10-16T10:21:45;12.18;;;5.38;;
40729;SDS011;26418;50.070;8.436;2022-10-16T10:24:12;12.90;;;7.00;;
40729;SDS011;26418;50.070;8.436;2022-10-16T10:26:38;14.88;;;6.75;;
40729;SDS011;26418;50.070;8.436;2022-10-16T10:30:14;20.70;;;7.68;;
40729;SDS011;26418;50.070;8.436;2022-10-16T10:32:14;43.60;;;15.70;;
40729;SDS011;26418;50.070;8.436;2022-10-16T10:41:52;5.20;;;2.35;;
40729;SDS011;26418;50.070;8.436;2022-10-16T10:46:22;4.15;;;2.05;;
40729;SDS011;26418;50.070;8.436;2022-10-16T10:51:46;7.47;;;2.72;;
40729;SDS011;26418;50.070;8.436;2022-10-16T10:57:09;3.58;;;1.73;;
40729;SDS011;26418;50.070;8.436;2022-10-16T11:05:49;2.13;;;1.48;;
40729;SDS011;26418;50.070;8.436;2022-10-16T11:08:45;1.55;;;1.10;;
40729;SDS011;26418;50.070;8.436;2022-10-16T11:11:26;6.15;;;1.60;;
40729;SDS011;26418;50.070;8.436;2022-10-16T11:21:51;1.80;;;1.25;;
40729;SDS011;26418;50.070;8.436;2022-10-16T11:24:59;1.48;;;1.05;;
40729;SDS011;26418;50.070;8.436;2022-10-16T11:27:42;2.85;;;1.20;;
40729;SDS011;26418;50.070;8.436;2022-10-16T11:30:20;3.15;;;1.20;;
40729;SDS011;26418;50.070;8.436;2022-10-16T11:33:04;3.23;;;1.40;;
40729;SDS011;26418;50.070;8.436;2022-10-16T11:38:26;3.33;;;1.50;;
40729;SDS011;26418;50.070;8.436;2022-10-16T11:46:30;2.08;;;1.20;;
40729;SDS011;26418;50.070;8.436;2022-10-16T11:49:03;3.42;;;1.30;;
40729;SDS011;26418;50.070;8.436;2022-10-16T11:51:36;2.25;;;1.00;;
40729;SDS011;26418;50.070;8.436;2022-10-16T11:57:03;1.92;;;1.77;;
40729;SDS011;26418;50.070;8.436;2022-10-16T11:59:41;10.77;;;8.02;;
40729;SDS011;26418;50.070;8.436;2022-10-16T12:05:03;4.00;;;1.95;;
40729;SDS011;26418;50.070;8.436;2022-10-16T12:07:49;5.40;;;1.88;;
40729;SDS011;26418;50.070;8.436;2022-10-16T12:10:34;2.08;;;1.40;;
40729;SDS011;26418;50.070;8.436;2022-10-16T12:13:02;3.90;;;1.75;;
40729;SDS011;26418;50.070;8.436;2022-10-16T12:15:30;3.88;;;1.70;;
40729;SDS011;26418;50.070;8.436;2022-10-16T12:17:57;1.60;;;1.15;;
40729;SDS011;26418;50.070;8.436;2022-10-16T12:20:25;2.25;;;1.55;;
40729;SDS011;26418;50.070;8.436;2022-10-16T12:23:04;3.10;;;1.77;;
40729;SDS011;26418;50.070;8.436;2022-10-16T12:25:31;1.70;;;1.30;;
40729;SDS011;26418;50.070;8.436;2022-10-16T12:30:27;2.88;;;1.45;;
40729;SDS011;26418;50.070;8.436;2022-10-16T12:33:01;2.88;;;1.27;;
40729;SDS011;26418;50.070;8.436;2022-10-16T12:35:31;3.10;;;1.60;;
40729;SDS011;26418;50.070;8.436;2022-10-16T12:38:17;1.88;;;1.30;;
40729;SDS011;26418;50.070;8.436;2022-10-16T12:40:46;2.03;;;1.60;;
40729;SDS011;26418;50.070;8.436;2022-10-16T12:45:45;2.00;;;1.80;;
40729;SDS011;26418;50.070;8.436;2022-10-16T12:48:21;2.92;;;1.52;;
40729;SDS011;26418;50.070;8.436;2022-10-16T12:50:47;2.65;;;1.85;;
40729;SDS011;26418;50.070;8.436;2022-10-16T12:53:18;3.55;;;1.92;;
40729;SDS011;26418;50.070;8.436;2022-10-16T13:03:45;2.03;;;1.52;;
40729;SDS011;26418;50.070;8.436;2022-10-16T13:08:57;2.05;;;1.00;;
40729;SDS011;26418;50.070;8.436;2022-10-16T13:19:50;11.00;;;1.45;;
40729;SDS011;26418;50.070;8.436;2022-10-16T13:22:45;2.22;;;1.25;;
40729;SDS011;26418;50.070;8.436;2022-10-16T13:25:43;3.80;;;1.33;;
40729;SDS011;26418;50.070;8.436;2022-10-16T13:28:21;2.33;;;1.60;;
40729;SDS011;26418;50.070;8.436;2022-10-16T13:30:53;1.30;;;1.08;;
40729;SDS011;26418;50.070;8.436;2022-10-16T13:33:23;2.42;;;1.60;;
40729;SDS011;26418;50.070;8.436;2022-10-16T13:35:56;2.00;;;1.30;;
40729;SDS011;26418;50.070;8.436;2022-10-16T13:38:29;1.77;;;0.90;;
40729;SDS011;26418;50.070;8.436;2022-10-16T13:41:12;0.88;;;0.88;;
40729;SDS011;26418;50.070;8.436;2022-10-16T13:48:43;1.55;;;0.73;;
40729;SDS011;26418;50.070;8.436;2022-10-16T13:51:13;1.42;;;0.90;;
40729;SDS011;26418;50.070;8.436;2022-10-16T13:53:40;3.13;;;1.40;;
40729;SDS011;26418;50.070;8.436;2022-10-16T13:56:07;1.38;;;1.23;;
40729;SDS011;26418;50.070;8.436;2022-10-16T13:58:36;1.20;;;1.10;;
40729;SDS011;26418;50.070;8.436;2022-10-16T14:01:02;1.13;;;1.00;;
40729;SDS011;26418;50.070;8.436;2022-10-16T14:03:33;2.30;;;1.20;;
40729;SDS011;26418;50.070;8.436;2022-10-16T14:06:01;1.23;;;0.77;;
40729;SDS011;26418;50.070;8.436;2022-10-16T14:08:29;1.27;;;0.85;;
40729;SDS011;26418;50.070;8.436;2022-10-16T14:10:56;0.90;;;0.75;;
40729;SDS011;26418;50.070;8.436;2022-10-16T14:13:34;2.15;;;1.20;;
40729;SDS011;26418;50.070;8.436;2022-10-16T14:16:09;1.63;;;1.10;;
40729;SDS011;26418;50.070;8.436;2022-10-16T14:18:41;2.05;;;1.17;;
40729;SDS011;26418;50.070;8.436;2022-10-16T14:21:12;3.67;;;1.60;;
40729;SDS011;26418;50.070;8.436;2022-10-16T14:23:39;2.67;;;1.92;;
40729;SDS011;26418;50.070;8.436;2022-10-16T14:28:36;1.80;;;1.38;;
40729;SDS011;26418;50.070;8.436;2022-10-16T14:31:03;1.45;;;1.08;;
40729;SDS011;26418;50.070;8.436;2022-10-16T14:33:58;1.73;;;0.93;;
40729;SDS011;26418;50.070;8.436;2022-10-16T14:36:24;0.70;;;0.70;;
40729;SDS011;26418;50.070;8.436;2022-10-16T14:41:31;1.05;;;0.80;;
40729;SDS011;26418;50.070;8.436;2022-10-16T14:44:05;1.15;;;0.75;;
40729;SDS011;26418;50.070;8.436;2022-10-16T14:46:32;1.65;;;1.40;;
40729;SDS011;26418;50.070;8.436;2022-10-16T14:49:02;1.52;;;0.90;;
40729;SDS011;26418;50.070;8.436;2022-10-16T14:51:38;2.47;;;1.02;;
40729;SDS011;26418;50.070;8.436;2022-10-16T14:54:07;1.33;;;0.90;;
40729;SDS011;26418;50.070;8.436;2022-10-16T15:04:46;2.90;;;1.10;;
40729;SDS011;26418;50.070;8.436;2022-10-16T15:07:11;2.03;;;1.10;;
40729;SDS011;26418;50.070;8.436;2022-10-16T15:09:37;1.27;;;1.02;;
40729;SDS011;26418;50.070;8.436;2022-10-16T15:12:02;1.60;;;1.23;;
40729;SDS011;26418;50.070;8.436;2022-10-16T15:14:28;1.17;;;1.02;;
40729;SDS011;26418;50.070;8.436;2022-10-16T15:16:53;1.90;;;1.10;;
40729;SDS011;26418;50.070;8.436;2022-10-16T15:19:18;2.42;;;1.17;;
40729;SDS011;26418;50.070;8.436;2022-10-16T15:21:44;1.45;;;1.00;;
40729;SDS011;26418;50.070;8.436;2022-10-16T15:24:11;1.02;;;0.93;;
40729;SDS011;26418;50.070;8.436;2022-10-16T15:26:38;1.45;;;1.23;;
40729;SDS011;26418;50.070;8.436;2022-10-16T15:29:03;1.60;;;1.00;;
40729;SDS011;26418;50.070;8.436;2022-10-16T15:31:29;2.10;;;1.00;;
40729;SDS011;26418;50.070;8.436;2022-10-16T15:33:54;1.25;;;1.15;;
40729;SDS011;26418;50.070;8.436;2022-10-16T15:36:27;2.00;;;1.27;;
40729;SDS011;26418;50.070;8.436;2022-10-16T15:38:53;2.47;;;1.20;;
40729;SDS011;26418;50.070;8.436;2022-10-16T15:41:19;2.28;;;1.23;;
40729;SDS011;26418;50.070;8.436;2022-10-16T15:43:45;2.17;;;1.30;;
40729;SDS011;26418;50.070;8.436;2022-10-16T15:46:16;1.17;;;1.05;;
40729;SDS011;26418;50.070;8.436;2022-10-16T15:48:44;2.07;;;1.17;;
40729;SDS011;26418;50.070;8.436;2022-10-16T15:51:09;2.95;;;1.65;;
40729;SDS011;26418;50.070;8.436;2022-10-16T15:53:34;2.00;;;1.70;;
40729;SDS011;26418;50.070;8.436;2022-10-16T15:56:04;3.33;;;1.70;;
40729;SDS011;26418;50.070;8.436;2022-10-16T15:58:30;1.77;;;1.65;;
40729;SDS011;26418;50.070;8.436;2022-10-16T16:00:56;2.15;;;1.60;;
40729;SDS011;26418;50.070;8.436;2022-10-16T16:03:22;1.88;;;1.55;;
40729;SDS011;26418;50.070;8.436;2022-10-16T16:05:48;1.40;;;1.10;;
40729;SDS011;26418;50.070;8.436;2022-10-16T16:08:13;3.03;;;1.20;;
40729;SDS011;26418;50.070;8.436;2022-10-16T16:10:38;2.95;;;1.60;;
40729;SDS011;26418;50.070;8.436;2022-10-16T16:13:04;1.77;;;1.67;;
40729;SDS011;26418;50.070;8.436;2022-10-16T16:15:29;2.33;;;1.55;;
40729;SDS011;26418;50.070;8.436;2022-10-16T16:17:54;2.50;;;1.98;;
40729;SDS011;26418;50.070;8.436;2022-10-16T16:20:20;3.40;;;2.17;;
40729;SDS011;26418;50.070;8.436;2022-10-16T16:22:45;4.15;;;2.38;;
40729;SDS011;26418;50.070;8.436;2022-10-16T16:25:10;4.30;;;2.67;;
40729;SDS011;26418;50.070;8.436;2022-10-16T16:27:36;4.72;;;3.10;;
40729;SDS011;26418;50.070;8.436;2022-10-16T16:30:03;3.50;;;2.55;;
40729;SDS011;26418;50.070;8.436;2022-10-16T16:32:30;5.45;;;2.92;;
40729;SDS011;26418;50.070;8.436;2022-10-16T16:34:55;6.47;;;2.90;;
40729;SDS011;26418;50.070;8.436;2022-10-16T16:37:21;6.13;;;3.90;;
40729;SDS011;26418;50.070;8.436;2022-10-16T16:39:46;7.03;;;3.65;;
40729;SDS011;26418;50.070;8.436;2022-10-16T16:42:12;9.70;;;6.60;;
40729;SDS011;26418;50.070;8.436;2022-10-16T16:44:37;9.75;;;5.55;;
40729;SDS011;26418;50.070;8.436;2022-10-16T16:47:03;16.17;;;8.07;;
40729;SDS011;26418;50.070;8.436;2022-10-16T16:49:29;14.13;;;7.43;;
40729;SDS011;26418;50.070;8.436;2022-10-16T16:51:54;11.65;;;6.32;;